sensor_id;sensor_type;location;lat;lon;timestamp;P1;durP1;ratioP1;P2;durP2;ratioP2
22922;SDS011;11627;51.322;22.816;2023-03-01T00:01:37;138.65;;;48.40;;
22922;SDS011;11627;51.322;22.816;2023-03-01T00:04:04;126.35;;;44.60;;
22922;SDS011;11627;51.322;22.816;2023-03-01T00:06:30;128.48;;;46.63;;
22922;SDS011;11627;51.322;22.816;2023-03-01T00:08:57;128.70;;;46.70;;
22922;SDS011;11627;51.322;22.816;2023-03-01T00:11:27;133.23;;;46.42;;
22922;SDS011;11627;51.322;22.816;2023-03-01T00:13:55;131.90;;;45.30;;
22922;SDS011;11627;51.322;22.816;2023-03-01T00:16:27;128.95;;;47.28;;
22922;SDS011;11627;51.322;22.816;2023-03-01T00:18:55;158.63;;;57.15;;
22922;SDS011;11627;51.322;22.816;2023-03-01T00:21:21;162.05;;;53.95;;
22922;SDS011;11627;51.322;22.816;2023-03-01T00:23:49;145.38;;;48.97;;
22922;SDS011;11627;51.322;22.816;2023-03-01T00:26:18;132.48;;;46.13;;
22922;SDS011;11627;51.322;22.816;2023-03-01T00:28:45;131.95;;;47.25;;
22922;SDS011;11627;51.322;22.816;2023-03-01T00:31:18;118.57;;;42.53;;
22922;SDS011;11627;51.322;22.816;2023-03-01T00:33:47;127.35;;;44.72;;
22922;SDS011;11627;51.322;22.816;2023-03-01T00:36:15;118.45;;;40.95;;
22922;SDS011;11627;51.322;22.816;2023-03-01T00:38:42;114.45;;;41.58;;
22922;SDS011;11627;51.322;22.816;2023-03-01T00:41:10;106.53;;;39.60;;
22922;SDS011;11627;51.322;22.816;2023-03-01T00:43:40;98.15;;;36.58;;
22922;SDS011;11627;51.322;22.816;2023-03-01T00:46:09;95.63;;;36.45;;
22922;SDS011;11627;51.322;22.816;2023-03-01T00:48:43;108.82;;;40.60;;
22922;SDS011;11627;51.322;22.816;2023-03-01T00:53:56;111.07;;;38.08;;
22922;SDS011;11627;51.322;22.816;2023-03-01T00:56:25;112.65;;;38.72;;
22922;SDS011;11627;51.322;22.816;2023-03-01T00:58:51;108.55;;;40.15;;
22922;SDS011;11627;51.322;22.816;2023-03-01T01:01:19;109.18;;;41.60;;
22922;SDS011;11627;51.322;22.816;2023-03-01T01:03:48;106.07;;;39.75;;
22922;SDS011;11627;51.322;22.816;2023-03-01T01:09:23;103.38;;;39.17;;
22922;SDS011;11627;51.322;22.816;2023-03-01T01:11:52;99.05;;;36.80;;
22922;SDS011;11627;51.322;22.816;2023-03-01T01:14:18;104.53;;;38.38;;
22922;SDS011;11627;51.322;22.816;2023-03-01T01:16:47;99.63;;;39.90;;
22922;SDS011;11627;51.322;22.816;2023-03-01T01:19:16;103.10;;;40.17;;
22922;SDS011;11627;51.322;22.816;2023-03-01T01:21:43;98.38;;;39.45;;
22922;SDS011;11627;51.322;22.816;2023-03-01T01:24:11;100.07;;;40.80;;
22922;SDS011;11627;51.322;22.816;2023-03-01T01:26:46;113.75;;;38.00;;
22922;SDS011;11627;51.322;22.816;2023-03-01T01:29:13;108.57;;;42.78;;
22922;SDS011;11627;51.322;22.816;2023-03-01T01:31:42;103.32;;;40.45;;
22922;SDS011;11627;51.322;22.816;2023-03-01T01:34:18;99.93;;;39.67;;
22922;SDS011;11627;51.322;22.816;2023-03-01T01:36:51;102.63;;;40.75;;
22922;SDS011;11627;51.322;22.816;2023-03-01T01:39:19;103.07;;;38.65;;
22922;SDS011;11627;51.322;22.816;2023-03-01T01:41:46;100.97;;;39.08;;
22922;SDS011;11627;51.322;22.816;2023-03-01T01:44:16;90.15;;;36.88;;
22922;SDS011;11627;51.322;22.816;2023-03-01T01:47:32;93.40;;;37.45;;
22922;SDS011;11627;51.322;22.816;2023-03-01T01:49:49;102.93;;;36.38;;
22922;SDS011;11627;51.322;22.816;2023-03-01T01:52:23;100.55;;;36.40;;
22922;SDS011;11627;51.322;22.816;2023-03-01T01:54:57;92.65;;;35.15;;
22922;SDS011;11627;51.322;22.816;2023-03-01T01:57:38;97.00;;;34.78;;
22922;SDS011;11627;51.322;22.816;2023-03-01T02:00:21;101.57;;;38.88;;
22922;SDS011;11627;51.322;22.816;2023-03-01T02:02:51;97.68;;;37.88;;
22922;SDS011;11627;51.322;22.816;2023-03-01T02:05:27;90.20;;;35.13;;
22922;SDS011;11627;51.322;22.816;2023-03-01T02:07:58;90.53;;;36.72;;
22922;SDS011;11627;51.322;22.816;2023-03-01T02:10:25;104.50;;;40.35;;
22922;SDS011;11627;51.322;22.816;2023-03-01T02:12:55;93.40;;;37.60;;
22922;SDS011;11627;51.322;22.816;2023-03-01T02:15:22;94.25;;;36.72;;
22922;SDS011;11627;51.322;22.816;2023-03-01T02:17:48;105.38;;;38.03;;
22922;SDS011;11627;51.322;22.816;2023-03-01T02:23:32;96.28;;;36.63;;
22922;SDS011;11627;51.322;22.816;2023-03-01T02:28:50;95.05;;;36.80;;
22922;SDS011;11627;51.322;22.816;2023-03-01T02:31:18;93.10;;;37.35;;
22922;SDS011;11627;51.322;22.816;2023-03-01T02:34:05;87.50;;;36.20;;
22922;SDS011;11627;51.322;22.816;2023-03-01T02:36:35;96.57;;;37.20;;
22922;SDS011;11627;51.322;22.816;2023-03-01T02:39:20;85.45;;;33.90;;
22922;SDS011;11627;51.322;22.816;2023-03-01T02:42:13;84.82;;;33.42;;
22922;SDS011;11627;51.322;22.816;2023-03-01T02:44:46;83.45;;;33.75;;
22922;SDS011;11627;51.322;22.816;2023-03-01T02:47:15;84.03;;;33.35;;
22922;SDS011;11627;51.322;22.816;2023-03-01T02:49:44;89.25;;;35.92;;
22922;SDS011;11627;51.322;22.816;2023-03-01T02:55:01;83.35;;;33.20;;
22922;SDS011;11627;51.322;22.816;2023-03-01T02:57:48;87.97;;;30.45;;
22922;SDS011;11627;51.322;22.816;2023-03-01T03:00:19;85.43;;;30.60;;
22922;SDS011;11627;51.322;22.816;2023-03-01T03:03:00;79.15;;;30.50;;
22922;SDS011;11627;51.322;22.816;2023-03-01T03:05:28;70.57;;;29.92;;
22922;SDS011;11627;51.322;22.816;2023-03-01T03:08:04;89.93;;;37.13;;
22922;SDS011;11627;51.322;22.816;2023-03-01T03:10:35;73.38;;;29.98;;
22922;SDS011;11627;51.322;22.816;2023-03-01T03:13:03;91.32;;;38.40;;
22922;SDS011;11627;51.322;22.816;2023-03-01T03:15:42;88.63;;;38.97;;
22922;SDS011;11627;51.322;22.816;2023-03-01T03:18:11;88.35;;;35.28;;
22922;SDS011;11627;51.322;22.816;2023-03-01T03:20:41;83.07;;;33.95;;
22922;SDS011;11627;51.322;22.816;2023-03-01T03:23:10;86.65;;;36.08;;
22922;SDS011;11627;51.322;22.816;2023-03-01T03:25:39;74.63;;;30.80;;
22922;SDS011;11627;51.322;22.816;2023-03-01T03:28:07;73.22;;;31.20;;
22922;SDS011;11627;51.322;22.816;2023-03-01T03:30:38;73.80;;;31.95;;
22922;SDS011;11627;51.322;22.816;2023-03-01T03:33:06;72.00;;;29.98;;
22922;SDS011;11627;51.322;22.816;2023-03-01T03:35:41;68.80;;;29.00;;
22922;SDS011;11627;51.322;22.816;2023-03-01T03:38:11;70.82;;;28.70;;
22922;SDS011;11627;51.322;22.816;2023-03-01T03:40:43;70.88;;;28.45;;
22922;SDS011;11627;51.322;22.816;2023-03-01T03:43:15;65.35;;;27.25;;
22922;SDS011;11627;51.322;22.816;2023-03-01T03:45:43;70.95;;;27.95;;
22922;SDS011;11627;51.322;22.816;2023-03-01T03:48:11;69.78;;;27.40;;
22922;SDS011;11627;51.322;22.816;2023-03-01T03:50:40;70.57;;;29.33;;
22922;SDS011;11627;51.322;22.816;2023-03-01T03:53:09;64.68;;;27.05;;
22922;SDS011;11627;51.322;22.816;2023-03-01T03:55:37;68.50;;;25.98;;
22922;SDS011;11627;51.322;22.816;2023-03-01T03:58:07;63.65;;;24.80;;
22922;SDS011;11627;51.322;22.816;2023-03-01T04:00:36;68.35;;;25.90;;
22922;SDS011;11627;51.322;22.816;2023-03-01T04:03:07;66.95;;;27.42;;
22922;SDS011;11627;51.322;22.816;2023-03-01T04:05:39;61.17;;;26.30;;
22922;SDS011;11627;51.322;22.816;2023-03-01T04:08:07;67.43;;;26.90;;
22922;SDS011;11627;51.322;22.816;2023-03-01T04:10:44;61.22;;;24.02;;
22922;SDS011;11627;51.322;22.816;2023-03-01T04:13:15;55.42;;;24.52;;
22922;SDS011;11627;51.322;22.816;2023-03-01T04:15:50;60.67;;;24.67;;
22922;SDS011;11627;51.322;22.816;2023-03-01T04:18:19;61.55;;;27.10;;
22922;SDS011;11627;51.322;22.816;2023-03-01T04:20:46;57.13;;;23.92;;
22922;SDS011;11627;51.322;22.816;2023-03-01T04:23:13;64.97;;;24.60;;
22922;SDS011;11627;51.322;22.816;2023-03-01T04:28:35;57.22;;;23.77;;
22922;SDS011;11627;51.322;22.816;2023-03-01T04:31:07;64.90;;;25.25;;
22922;SDS011;11627;51.322;22.816;2023-03-01T04:33:41;86.75;;;28.88;;
22922;SDS011;11627;51.322;22.816;2023-03-01T04:36:10;59.72;;;25.00;;
22922;SDS011;11627;51.322;22.816;2023-03-01T04:38:39;68.70;;;26.45;;
22922;SDS011;11627;51.322;22.816;2023-03-01T04:41:08;62.83;;;25.25;;
22922;SDS011;11627;51.322;22.816;2023-03-01T04:43:56;57.75;;;22.10;;
22922;SDS011;11627;51.322;22.816;2023-03-01T04:46:25;58.30;;;24.25;;
22922;SDS011;11627;51.322;22.816;2023-03-01T04:48:52;60.05;;;24.95;;
22922;SDS011;11627;51.322;22.816;2023-03-01T04:51:22;60.47;;;25.75;;
22922;SDS011;11627;51.322;22.816;2023-03-01T04:53:49;56.30;;;23.23;;
22922;SDS011;11627;51.322;22.816;2023-03-01T04:56:15;61.03;;;25.30;;
22922;SDS011;11627;51.322;22.816;2023-03-01T04:58:55;61.47;;;24.23;;
22922;SDS011;11627;51.322;22.816;2023-03-01T05:01:23;57.90;;;24.17;;
22922;SDS011;11627;51.322;22.816;2023-03-01T05:03:50;55.00;;;24.77;;
22922;SDS011;11627;51.322;22.816;2023-03-01T05:06:20;61.03;;;24.60;;
22922;SDS011;11627;51.322;22.816;2023-03-01T05:08:53;63.30;;;24.23;;
22922;SDS011;11627;51.322;22.816;2023-03-01T05:11:20;62.30;;;24.42;;
22922;SDS011;11627;51.322;22.816;2023-03-01T05:13:49;58.38;;;24.02;;
22922;SDS011;11627;51.322;22.816;2023-03-01T05:16:20;60.05;;;24.80;;
22922;SDS011;11627;51.322;22.816;2023-03-01T05:18:47;58.78;;;25.25;;
22922;SDS011;11627;51.322;22.816;2023-03-01T05:21:17;64.15;;;28.80;;
22922;SDS011;11627;51.322;22.816;2023-03-01T05:23:44;68.30;;;27.60;;
22922;SDS011;11627;51.322;22.816;2023-03-01T05:26:13;63.60;;;26.05;;
22922;SDS011;11627;51.322;22.816;2023-03-01T05:28:43;61.53;;;26.50;;
22922;SDS011;11627;51.322;22.816;2023-03-01T05:31:11;59.28;;;27.48;;
22922;SDS011;11627;51.322;22.816;2023-03-01T05:33:39;63.25;;;26.58;;
22922;SDS011;11627;51.322;22.816;2023-03-01T05:36:07;63.88;;;25.70;;
22922;SDS011;11627;51.322;22.816;2023-03-01T05:38:34;61.92;;;25.05;;
22922;SDS011;11627;51.322;22.816;2023-03-01T05:41:02;62.50;;;26.08;;
22922;SDS011;11627;51.322;22.816;2023-03-01T05:43:31;66.95;;;27.15;;
22922;SDS011;11627;51.322;22.816;2023-03-01T05:46:00;58.55;;;25.95;;
22922;SDS011;11627;51.322;22.816;2023-03-01T05:48:29;61.92;;;26.23;;
22922;SDS011;11627;51.322;22.816;2023-03-01T05:50:57;65.18;;;27.52;;
22922;SDS011;11627;51.322;22.816;2023-03-01T05:53:26;66.72;;;28.40;;
22922;SDS011;11627;51.322;22.816;2023-03-01T05:55:56;69.90;;;28.52;;
22922;SDS011;11627;51.322;22.816;2023-03-01T05:58:23;63.67;;;26.08;;
22922;SDS011;11627;51.322;22.816;2023-03-01T06:00:50;65.50;;;26.70;;
22922;SDS011;11627;51.322;22.816;2023-03-01T06:03:19;60.50;;;26.45;;
22922;SDS011;11627;51.322;22.816;2023-03-01T06:05:47;70.85;;;27.48;;
22922;SDS011;11627;51.322;22.816;2023-03-01T06:08:15;67.57;;;25.35;;
22922;SDS011;11627;51.322;22.816;2023-03-01T06:10:43;73.45;;;27.58;;
22922;SDS011;11627;51.322;22.816;2023-03-01T06:13:12;106.88;;;37.60;;
22922;SDS011;11627;51.322;22.816;2023-03-01T06:15:40;103.00;;;35.72;;
22922;SDS011;11627;51.322;22.816;2023-03-01T06:18:09;96.25;;;36.15;;
22922;SDS011;11627;51.322;22.816;2023-03-01T06:20:37;98.40;;;37.90;;
22922;SDS011;11627;51.322;22.816;2023-03-01T06:23:03;87.60;;;37.65;;
22922;SDS011;11627;51.322;22.816;2023-03-01T06:25:30;94.22;;;37.55;;
22922;SDS011;11627;51.322;22.816;2023-03-01T06:27:59;86.00;;;37.92;;
22922;SDS011;11627;51.322;22.816;2023-03-01T06:30:27;89.25;;;40.83;;
22922;SDS011;11627;51.322;22.816;2023-03-01T06:32:56;90.57;;;39.35;;
22922;SDS011;11627;51.322;22.816;2023-03-01T06:35:29;83.28;;;39.88;;
22922;SDS011;11627;51.322;22.816;2023-03-01T06:37:55;80.22;;;38.45;;
22922;SDS011;11627;51.322;22.816;2023-03-01T06:40:32;81.32;;;38.30;;
22922;SDS011;11627;51.322;22.816;2023-03-01T06:43:01;85.85;;;38.35;;
22922;SDS011;11627;51.322;22.816;2023-03-01T06:45:28;83.53;;;35.88;;
22922;SDS011;11627;51.322;22.816;2023-03-01T06:48:06;76.07;;;36.15;;
22922;SDS011;11627;51.322;22.816;2023-03-01T06:50:36;83.65;;;36.67;;
22922;SDS011;11627;51.322;22.816;2023-03-01T06:53:04;76.85;;;35.45;;
22922;SDS011;11627;51.322;22.816;2023-03-01T06:55:30;74.05;;;33.15;;
22922;SDS011;11627;51.322;22.816;2023-03-01T06:57:58;74.90;;;29.95;;
22922;SDS011;11627;51.322;22.816;2023-03-01T07:00:26;67.72;;;27.23;;
22922;SDS011;11627;51.322;22.816;2023-03-01T07:02:53;62.45;;;27.23;;
22922;SDS011;11627;51.322;22.816;2023-03-01T07:05:24;58.83;;;26.45;;
22922;SDS011;11627;51.322;22.816;2023-03-01T07:07:53;49.85;;;23.02;;
22922;SDS011;11627;51.322;22.816;2023-03-01T07:10:26;54.47;;;23.75;;
22922;SDS011;11627;51.322;22.816;2023-03-01T07:12:57;58.42;;;25.85;;
22922;SDS011;11627;51.322;22.816;2023-03-01T07:15:36;51.95;;;21.67;;
22922;SDS011;11627;51.322;22.816;2023-03-01T07:18:06;57.08;;;24.80;;
22922;SDS011;11627;51.322;22.816;2023-03-01T07:20:34;50.42;;;23.25;;
22922;SDS011;11627;51.322;22.816;2023-03-01T07:23:02;55.38;;;22.45;;
22922;SDS011;11627;51.322;22.816;2023-03-01T07:25:33;62.10;;;23.77;;
22922;SDS011;11627;51.322;22.816;2023-03-01T07:28:00;51.45;;;21.60;;
22922;SDS011;11627;51.322;22.816;2023-03-01T07:30:27;55.47;;;23.55;;
22922;SDS011;11627;51.322;22.816;2023-03-01T07:32:54;48.65;;;21.25;;
22922;SDS011;11627;51.322;22.816;2023-03-01T07:35:26;54.10;;;23.45;;
22922;SDS011;11627;51.322;22.816;2023-03-01T07:37:54;46.45;;;18.63;;
22922;SDS011;11627;51.322;22.816;2023-03-01T07:40:21;45.20;;;19.58;;
22922;SDS011;11627;51.322;22.816;2023-03-01T07:42:48;51.88;;;21.48;;
22922;SDS011;11627;51.322;22.816;2023-03-01T07:45:21;45.97;;;20.80;;
22922;SDS011;11627;51.322;22.816;2023-03-01T07:47:52;45.75;;;21.13;;
22922;SDS011;11627;51.322;22.816;2023-03-01T07:50:20;45.15;;;19.65;;
22922;SDS011;11627;51.322;22.816;2023-03-01T07:52:48;45.30;;;19.08;;
22922;SDS011;11627;51.322;22.816;2023-03-01T07:55:16;46.88;;;20.23;;
22922;SDS011;11627;51.322;22.816;2023-03-01T07:57:43;49.40;;;19.55;;
22922;SDS011;11627;51.322;22.816;2023-03-01T08:00:10;47.05;;;19.73;;
22922;SDS011;11627;51.322;22.816;2023-03-01T08:02:37;45.20;;;21.58;;
22922;SDS011;11627;51.322;22.816;2023-03-01T08:05:09;44.95;;;22.63;;
22922;SDS011;11627;51.322;22.816;2023-03-01T08:07:36;41.63;;;18.77;;
22922;SDS011;11627;51.322;22.816;2023-03-01T08:10:04;48.00;;;21.58;;
22922;SDS011;11627;51.322;22.816;2023-03-01T08:12:33;46.00;;;20.70;;
22922;SDS011;11627;51.322;22.816;2023-03-01T08:15:00;49.10;;;22.40;;
22922;SDS011;11627;51.322;22.816;2023-03-01T08:17:50;45.20;;;19.38;;
22922;SDS011;11627;51.322;22.816;2023-03-01T08:20:18;45.33;;;22.17;;
22922;SDS011;11627;51.322;22.816;2023-03-01T08:22:45;43.22;;;20.05;;
22922;SDS011;11627;51.322;22.816;2023-03-01T08:25:13;41.60;;;20.27;;
22922;SDS011;11627;51.322;22.816;2023-03-01T08:27:40;38.00;;;16.80;;
22922;SDS011;11627;51.322;22.816;2023-03-01T08:30:09;38.80;;;16.35;;
22922;SDS011;11627;51.322;22.816;2023-03-01T08:32:41;43.13;;;17.05;;
22922;SDS011;11627;51.322;22.816;2023-03-01T08:35:08;32.17;;;16.10;;
22922;SDS011;11627;51.322;22.816;2023-03-01T08:37:37;34.28;;;16.75;;
22922;SDS011;11627;51.322;22.816;2023-03-01T08:40:04;41.58;;;16.63;;
22922;SDS011;11627;51.322;22.816;2023-03-01T08:42:36;36.22;;;17.25;;
22922;SDS011;11627;51.322;22.816;2023-03-01T08:45:03;36.10;;;16.67;;
22922;SDS011;11627;51.322;22.816;2023-03-01T08:47:31;37.03;;;15.50;;
22922;SDS011;11627;51.322;22.816;2023-03-01T08:50:03;29.48;;;14.07;;
22922;SDS011;11627;51.322;22.816;2023-03-01T08:52:32;31.58;;;14.38;;
22922;SDS011;11627;51.322;22.816;2023-03-01T08:54:59;30.60;;;13.43;;
22922;SDS011;11627;51.322;22.816;2023-03-01T08:57:28;29.80;;;14.35;;
22922;SDS011;11627;51.322;22.816;2023-03-01T08:59:55;27.88;;;12.80;;
22922;SDS011;11627;51.322;22.816;2023-03-01T09:02:22;29.77;;;14.07;;
22922;SDS011;11627;51.322;22.816;2023-03-01T09:04:50;30.85;;;14.30;;
22922;SDS011;11627;51.322;22.816;2023-03-01T09:07:18;33.50;;;15.32;;
22922;SDS011;11627;51.322;22.816;2023-03-01T09:09:46;31.55;;;14.75;;
22922;SDS011;11627;51.322;22.816;2023-03-01T09:12:13;36.22;;;14.73;;
22922;SDS011;11627;51.322;22.816;2023-03-01T09:14:41;34.53;;;15.25;;
22922;SDS011;11627;51.322;22.816;2023-03-01T09:17:09;34.83;;;15.52;;
22922;SDS011;11627;51.322;22.816;2023-03-01T09:19:36;33.30;;;15.35;;
22922;SDS011;11627;51.322;22.816;2023-03-01T09:22:06;37.42;;;15.65;;
22922;SDS011;11627;51.322;22.816;2023-03-01T09:24:34;37.25;;;16.23;;
22922;SDS011;11627;51.322;22.816;2023-03-01T09:27:02;37.20;;;17.77;;
22922;SDS011;11627;51.322;22.816;2023-03-01T09:29:38;30.70;;;15.68;;
22922;SDS011;11627;51.322;22.816;2023-03-01T09:32:07;32.17;;;14.93;;
22922;SDS011;11627;51.322;22.816;2023-03-01T09:34:33;32.03;;;15.57;;
22922;SDS011;11627;51.322;22.816;2023-03-01T09:37:20;37.03;;;16.02;;
22922;SDS011;11627;51.322;22.816;2023-03-01T09:39:49;36.05;;;15.85;;
22922;SDS011;11627;51.322;22.816;2023-03-01T09:42:17;33.00;;;15.02;;
22922;SDS011;11627;51.322;22.816;2023-03-01T09:45:04;34.28;;;14.98;;
22922;SDS011;11627;51.322;22.816;2023-03-01T09:47:47;32.60;;;14.77;;
22922;SDS011;11627;51.322;22.816;2023-03-01T10:10:15;25.42;;;11.90;;
22922;SDS011;11627;51.322;22.816;2023-03-01T10:13:24;25.13;;;11.85;;
22922;SDS011;11627;51.322;22.816;2023-03-01T10:16:02;23.10;;;11.20;;
22922;SDS011;11627;51.322;22.816;2023-03-01T10:18:37;23.77;;;10.93;;
22922;SDS011;11627;51.322;22.816;2023-03-01T10:21:19;22.30;;;10.35;;
22922;SDS011;11627;51.322;22.816;2023-03-01T10:23:49;18.02;;;8.45;;
22922;SDS011;11627;51.322;22.816;2023-03-01T10:26:25;22.55;;;9.63;;
22922;SDS011;11627;51.322;22.816;2023-03-01T10:31:53;20.02;;;9.27;;
22922;SDS011;11627;51.322;22.816;2023-03-01T10:34:28;22.95;;;9.48;;
22922;SDS011;11627;51.322;22.816;2023-03-01T10:37:15;18.42;;;8.88;;
22922;SDS011;11627;51.322;22.816;2023-03-01T10:40:03;19.02;;;9.13;;
22922;SDS011;11627;51.322;22.816;2023-03-01T10:42:49;16.58;;;7.88;;
22922;SDS011;11627;51.322;22.816;2023-03-01T10:45:38;18.63;;;9.00;;
22922;SDS011;11627;51.322;22.816;2023-03-01T10:50:34;13.65;;;6.32;;
22922;SDS011;11627;51.322;22.816;2023-03-01T10:53:05;13.90;;;6.53;;
22922;SDS011;11627;51.322;22.816;2023-03-01T10:56:27;12.63;;;6.55;;
22922;SDS011;11627;51.322;22.816;2023-03-01T10:58:59;13.85;;;6.80;;
22922;SDS011;11627;51.322;22.816;2023-03-01T11:01:30;11.45;;;5.75;;
22922;SDS011;11627;51.322;22.816;2023-03-01T11:04:17;10.73;;;5.68;;
22922;SDS011;11627;51.322;22.816;2023-03-01T11:06:43;9.48;;;5.00;;
22922;SDS011;11627;51.322;22.816;2023-03-01T11:09:22;9.32;;;4.57;;
22922;SDS011;11627;51.322;22.816;2023-03-01T11:11:53;12.57;;;5.43;;
22922;SDS011;11627;51.322;22.816;2023-03-01T11:14:21;9.80;;;4.40;;
22922;SDS011;11627;51.322;22.816;2023-03-01T11:19:39;9.68;;;4.63;;
22922;SDS011;11627;51.322;22.816;2023-03-01T11:22:16;11.40;;;5.60;;
22922;SDS011;11627;51.322;22.816;2023-03-01T11:24:51;10.55;;;5.72;;
22922;SDS011;11627;51.322;22.816;2023-03-01T11:27:24;13.88;;;5.70;;
22922;SDS011;11627;51.322;22.816;2023-03-01T11:32:20;12.18;;;5.53;;
22922;SDS011;11627;51.322;22.816;2023-03-01T11:34:59;12.23;;;6.00;;
22922;SDS011;11627;51.322;22.816;2023-03-01T11:37:53;13.23;;;6.20;;
22922;SDS011;11627;51.322;22.816;2023-03-01T11:40:34;12.45;;;6.18;;
22922;SDS011;11627;51.322;22.816;2023-03-01T11:43:23;13.82;;;6.10;;
22922;SDS011;11627;51.322;22.816;2023-03-01T11:51:47;16.42;;;7.70;;
22922;SDS011;11627;51.322;22.816;2023-03-01T12:05:57;17.15;;;8.60;;
22922;SDS011;11627;51.322;22.816;2023-03-01T12:08:36;21.02;;;9.18;;
22922;SDS011;11627;51.322;22.816;2023-03-01T12:22:42;13.07;;;6.40;;
22922;SDS011;11627;51.322;22.816;2023-03-01T12:42:20;12.25;;;6.43;;
22922;SDS011;11627;51.322;22.816;2023-03-01T12:55:53;14.23;;;7.03;;
22922;SDS011;11627;51.322;22.816;2023-03-01T12:58:42;11.52;;;6.18;;
22922;SDS011;11627;51.322;22.816;2023-03-01T13:23:33;8.98;;;4.75;;
22922;SDS011;11627;51.322;22.816;2023-03-01T13:33:44;8.77;;;4.18;;
22922;SDS011;11627;51.322;22.816;2023-03-01T13:36:45;15.55;;;6.10;;
22922;SDS011;11627;51.322;22.816;2023-03-01T13:41:57;24.00;;;7.65;;
22922;SDS011;11627;51.322;22.816;2023-03-01T13:44:32;29.52;;;8.50;;
22922;SDS011;11627;51.322;22.816;2023-03-01T13:52:52;9.63;;;4.90;;
22922;SDS011;11627;51.322;22.816;2023-03-01T13:55:38;12.93;;;6.18;;
22922;SDS011;11627;51.322;22.816;2023-03-01T13:58:19;24.83;;;8.65;;
22922;SDS011;11627;51.322;22.816;2023-03-01T14:00:46;12.68;;;5.70;;
22922;SDS011;11627;51.322;22.816;2023-03-01T14:03:16;27.80;;;9.45;;
22922;SDS011;11627;51.322;22.816;2023-03-01T14:05:57;15.07;;;6.43;;
22922;SDS011;11627;51.322;22.816;2023-03-01T14:08:24;11.52;;;5.90;;
22922;SDS011;11627;51.322;22.816;2023-03-01T14:16:17;11.90;;;5.63;;
22922;SDS011;11627;51.322;22.816;2023-03-01T14:19:13;12.25;;;6.65;;
22922;SDS011;11627;51.322;22.816;2023-03-01T14:24:46;10.88;;;5.30;;
22922;SDS011;11627;51.322;22.816;2023-03-01T14:27:37;11.30;;;6.18;;
22922;SDS011;11627;51.322;22.816;2023-03-01T14:30:11;11.38;;;5.70;;
22922;SDS011;11627;51.322;22.816;2023-03-01T14:32:52;11.25;;;6.18;;
22922;SDS011;11627;51.322;22.816;2023-03-01T14:35:29;11.70;;;6.55;;
22922;SDS011;11627;51.322;22.816;2023-03-01T14:37:57;12.48;;;6.53;;
22922;SDS011;11627;51.322;22.816;2023-03-01T14:40:30;10.50;;;7.15;;
22922;SDS011;11627;51.322;22.816;2023-03-01T14:43:00;13.02;;;6.85;;
22922;SDS011;11627;51.322;22.816;2023-03-01T14:45:27;13.73;;;7.55;;
22922;SDS011;11627;51.322;22.816;2023-03-01T14:47:55;14.85;;;7.07;;
22922;SDS011;11627;51.322;22.816;2023-03-01T14:50:27;15.27;;;7.43;;
22922;SDS011;11627;51.322;22.816;2023-03-01T14:53:11;12.65;;;6.90;;
22922;SDS011;11627;51.322;22.816;2023-03-01T14:56:33;16.98;;;7.93;;
22922;SDS011;11627;51.322;22.816;2023-03-01T14:58:38;14.88;;;7.43;;
22922;SDS011;11627;51.322;22.816;2023-03-01T15:01:04;15.68;;;7.55;;
22922;SDS011;11627;51.322;22.816;2023-03-01T15:06:11;15.27;;;7.93;;
22922;SDS011;11627;51.322;22.816;2023-03-01T15:08:42;23.92;;;9.50;;
22922;SDS011;11627;51.322;22.816;2023-03-01T15:13:48;42.20;;;18.23;;
22922;SDS011;11627;51.322;22.816;2023-03-01T15:18:47;24.20;;;10.05;;
22922;SDS011;11627;51.322;22.816;2023-03-01T15:21:20;37.50;;;12.88;;
22922;SDS011;11627;51.322;22.816;2023-03-01T15:23:55;31.85;;;12.60;;
22922;SDS011;11627;51.322;22.816;2023-03-01T15:26:52;41.90;;;17.20;;
22922;SDS011;11627;51.322;22.816;2023-03-01T15:29:25;29.70;;;11.82;;
22922;SDS011;11627;51.322;22.816;2023-03-01T15:32:03;26.70;;;10.35;;
22922;SDS011;11627;51.322;22.816;2023-03-01T15:34:30;28.02;;;11.52;;
22922;SDS011;11627;51.322;22.816;2023-03-01T15:37:00;27.77;;;11.38;;
22922;SDS011;11627;51.322;22.816;2023-03-01T15:44:36;26.85;;;11.82;;
22922;SDS011;11627;51.322;22.816;2023-03-01T15:49:52;33.35;;;14.13;;
22922;SDS011;11627;51.322;22.816;2023-03-01T15:52:22;42.65;;;17.70;;
22922;SDS011;11627;51.322;22.816;2023-03-01T15:55:03;31.33;;;13.77;;
22922;SDS011;11627;51.322;22.816;2023-03-01T15:57:31;32.13;;;13.38;;
22922;SDS011;11627;51.322;22.816;2023-03-01T15:59:57;30.20;;;12.90;;
22922;SDS011;11627;51.322;22.816;2023-03-01T16:02:23;41.13;;;16.85;;
22922;SDS011;11627;51.322;22.816;2023-03-01T16:04:49;48.83;;;19.83;;
22922;SDS011;11627;51.322;22.816;2023-03-01T16:07:15;79.20;;;26.38;;
22922;SDS011;11627;51.322;22.816;2023-03-01T16:09:41;44.80;;;16.50;;
22922;SDS011;11627;51.322;22.816;2023-03-01T16:12:17;32.72;;;15.25;;
22922;SDS011;11627;51.322;22.816;2023-03-01T16:14:45;52.10;;;17.08;;
22922;SDS011;11627;51.322;22.816;2023-03-01T16:17:11;47.53;;;17.85;;
22922;SDS011;11627;51.322;22.816;2023-03-01T16:19:39;57.50;;;20.90;;
22922;SDS011;11627;51.322;22.816;2023-03-01T16:22:06;62.35;;;20.95;;
22922;SDS011;11627;51.322;22.816;2023-03-01T16:24:32;64.22;;;25.38;;
22922;SDS011;11627;51.322;22.816;2023-03-01T16:26:58;74.75;;;27.30;;
22922;SDS011;11627;51.322;22.816;2023-03-01T16:29:23;92.10;;;31.73;;
22922;SDS011;11627;51.322;22.816;2023-03-01T16:31:49;88.90;;;36.47;;
22922;SDS011;11627;51.322;22.816;2023-03-01T16:34:16;95.38;;;38.60;;
22922;SDS011;11627;51.322;22.816;2023-03-01T16:36:42;98.50;;;41.42;;
22922;SDS011;11627;51.322;22.816;2023-03-01T16:39:08;108.32;;;40.95;;
22922;SDS011;11627;51.322;22.816;2023-03-01T16:41:34;93.45;;;35.65;;
22922;SDS011;11627;51.322;22.816;2023-03-01T16:44:00;85.38;;;32.70;;
22922;SDS011;11627;51.322;22.816;2023-03-01T16:46:26;99.57;;;35.63;;
22922;SDS011;11627;51.322;22.816;2023-03-01T16:48:53;119.32;;;39.05;;
22922;SDS011;11627;51.322;22.816;2023-03-01T16:51:22;141.95;;;43.55;;
22922;SDS011;11627;51.322;22.816;2023-03-01T16:53:50;181.20;;;54.03;;
22922;SDS011;11627;51.322;22.816;2023-03-01T16:56:16;193.18;;;57.78;;
22922;SDS011;11627;51.322;22.816;2023-03-01T16:58:43;184.90;;;56.40;;
22922;SDS011;11627;51.322;22.816;2023-03-01T17:01:13;189.07;;;58.55;;
22922;SDS011;11627;51.322;22.816;2023-03-01T17:03:41;204.88;;;63.30;;
22922;SDS011;11627;51.322;22.816;2023-03-01T17:06:12;189.50;;;59.15;;
22922;SDS011;11627;51.322;22.816;2023-03-01T17:08:40;166.10;;;53.83;;
22922;SDS011;11627;51.322;22.816;2023-03-01T17:11:10;162.80;;;50.65;;
22922;SDS011;11627;51.322;22.816;2023-03-01T17:13:39;251.68;;;78.90;;
22922;SDS011;11627;51.322;22.816;2023-03-01T17:16:06;194.10;;;56.70;;
22922;SDS011;11627;51.322;22.816;2023-03-01T17:18:33;144.85;;;45.03;;
22922;SDS011;11627;51.322;22.816;2023-03-01T17:20:59;108.55;;;36.53;;